Time;durP1;ratioP1;P1;durP2;ratioP2;P2;SDS_P1;SDS_P2;PMS_P1;PMS_P2;Temp;Humidity;BMP_temperature;BMP_pressure;BME280_temperature;BME280_humidity;BME280_pressure;Samples;Min_cycle;Max_cycle;Signal;HPM_P1;HPM_P2
2023/06/07 00:01:56;;;;;;;8.82;4.60;;;;;;;12.19;67.69;99700.56;5055701;28;20064;-73
2023/06/07 00:04:22;;;;;;;7.35;4.05;;;;;;;12.18;67.40;99693.53;5021558;28;20044;-72
2023/06/07 00:06:47;;;;;;;10.35;5.28;;;;;;;12.15;67.96;99687.56;5056070;28;20039;-70
2023/06/07 00:09:13;;;;;;;7.85;4.40;;;;;;;12.10;67.73;99684.38;5055910;28;20042;-71
2023/06/07 00:11:38;;;;;;;9.20;3.88;;;;;;;12.11;67.86;99686.94;5055781;28;20047;-70
2023/06/07 00:14:04;;;;;;;7.05;4.28;;;;;;;12.09;68.36;99680.00;5055755;28;20040;-70
2023/06/07 00:16:29;;;;;;;7.60;3.95;;;;;;;12.06;68.42;99693.63;5055475;28;20495;-70
2023/06/07 00:18:55;;;;;;;8.38;4.05;;;;;;;12.05;68.18;99678.56;5020674;28;20040;-70
2023/06/07 00:21:21;;;;;;;9.27;4.70;;;;;;;11.99;68.66;99688.72;5036493;28;20047;-70
2023/06/07 00:23:46;;;;;;;9.93;4.40;;;;;;;11.97;68.49;99693.34;5054205;28;20038;-71
2023/06/07 00:26:12;;;;;;;7.93;4.20;;;;;;;11.93;68.49;99691.88;5055588;28;20054;-71
2023/06/07 00:28:38;;;;;;;10.68;4.90;;;;;;;11.91;68.55;99684.94;5054170;28;20044;-72
2023/06/07 00:31:04;;;;;;;12.20;5.20;;;;;;;11.89;68.45;99681.53;5037609;28;20553;-71
2023/06/07 00:33:29;;;;;;;7.70;4.30;;;;;;;11.86;68.79;99682.63;5036701;28;20048;-71
2023/06/07 00:35:54;;;;;;;20.83;5.30;;;;;;;11.86;68.48;99685.28;5020097;28;20047;-71
2023/06/07 00:38:20;;;;;;;7.85;4.53;;;;;;;11.83;68.66;99708.72;5037322;28;20044;-71
2023/06/07 00:40:45;;;;;;;6.82;4.45;;;;;;;11.84;69.03;99684.56;5053931;28;20050;-72
2023/06/07 00:43:10;;;;;;;8.68;4.35;;;;;;;11.82;69.41;99686.50;5038044;28;20048;-71
2023/06/07 00:45:35;;;;;;;9.40;4.18;;;;;;;11.82;69.32;99693.66;5055767;28;20048;-71
2023/06/07 00:48:01;;;;;;;9.93;4.43;;;;;;;11.80;69.66;99695.59;5056149;28;20040;-71
2023/06/07 00:50:27;;;;;;;5.78;4.10;;;;;;;11.78;69.59;99711.72;5037625;28;20059;-71
2023/06/07 00:52:52;;;;;;;7.55;4.18;;;;;;;11.76;69.37;99689.63;5037476;28;20048;-71
2023/06/07 00:55:18;;;;;;;8.93;4.28;;;;;;;11.73;69.54;99697.88;5037369;28;20059;-72
2023/06/07 00:57:43;;;;;;;9.27;4.90;;;;;;;11.72;69.60;99689.97;5037819;28;20047;-71
2023/06/07 01:00:13;;;;;;;8.38;4.93;;;;;;;11.70;69.78;99708.75;5003138;28;20499;-71
2023/06/07 01:02:39;;;;;;;7.70;4.25;;;;;;;11.68;69.69;99700.00;5056099;28;20063;-71
2023/06/07 01:05:06;;;;;;;9.02;4.47;;;;;;;11.69;69.40;99693.72;5037966;28;20051;-71
2023/06/07 01:07:32;;;;;;;14.15;5.38;;;;;;;11.68;69.15;99678.66;5054502;28;20036;-72
2023/06/07 01:10:01;;;;;;;10.25;4.10;;;;;;;11.68;69.94;99694.66;5070925;28;20048;-71
2023/06/07 01:12:30;;;;;;;7.85;4.40;;;;;;;11.67;69.72;99681.44;5055349;28;20043;-72
2023/06/07 01:14:56;;;;;;;8.52;4.65;;;;;;;11.68;68.96;99693.81;5055318;28;20055;-72
2023/06/07 01:17:24;;;;;;;10.65;5.35;;;;;;;11.67;69.35;99687.63;5055461;28;20059;-71
2023/06/07 01:19:53;;;;;;;11.95;5.32;;;;;;;11.69;69.33;99690.19;5037876;28;20055;-73
2023/06/07 01:22:28;;;;;;;18.38;5.05;;;;;;;11.73;69.84;99689.00;5037373;28;20071;-72
2023/06/07 01:24:56;;;;;;;9.60;4.47;;;;;;;11.71;68.88;99689.09;5055946;28;20047;-71
2023/06/07 01:27:27;;;;;;;8.93;5.05;;;;;;;11.72;69.52;99690.81;5004252;28;20514;-71
2023/06/07 01:29:58;;;;;;;9.13;4.55;;;;;;;11.77;69.52;99671.78;5055759;28;20048;-72
2023/06/07 01:32:25;;;;;;;9.68;5.18;;;;;;;11.75;69.48;99684.38;5056240;28;20063;-72
2023/06/07 01:34:51;;;;;;;13.25;5.30;;;;;;;11.76;68.96;99686.09;5054022;28;20048;-71
2023/06/07 01:37:19;;;;;;;13.05;5.28;;;;;;;11.78;68.74;99679.69;5054258;28;20048;-72
2023/06/07 01:39:46;;;;;;;11.30;4.78;;;;;;;11.81;68.96;99682.13;5037683;28;20058;-71
2023/06/07 01:42:12;;;;;;;12.02;5.10;;;;;;;11.85;68.87;99685.44;5053920;28;20040;-71
2023/06/07 01:44:40;;;;;;;12.18;5.03;;;;;;;11.86;68.62;99677.28;5054566;28;20052;-72
2023/06/07 01:47:06;;;;;;;8.80;4.85;;;;;;;11.96;67.89;99682.78;5053755;28;20036;-70
2023/06/07 01:49:32;;;;;;;14.18;5.22;;;;;;;12.01;67.87;99685.94;5036130;28;20055;-72
2023/06/07 01:51:58;;;;;;;7.47;5.03;;;;;;;12.03;67.74;99720.56;5056545;28;20044;-71
2023/06/07 01:54:24;;;;;;;15.48;6.03;;;;;;;12.10;67.48;99695.06;5058477;28;20043;-72
2023/06/07 01:56:53;;;;;;;13.35;5.45;;;;;;;12.14;67.17;99681.38;5040500;28;20517;-72
2023/06/07 01:59:30;;;;;;;11.98;5.20;;;;;;;12.23;67.42;99690.47;5057134;28;20509;-72
2023/06/07 02:02:34;;;;;;;9.18;4.80;;;;;;;12.30;67.43;99697.91;5057237;28;20063;-71
2023/06/07 02:05:11;;;;;;;10.63;5.15;;;;;;;12.33;66.97;99686.97;5055310;28;20498;-71
2023/06/07 02:07:49;;;;;;;9.55;4.70;;;;;;;12.39;66.95;99695.50;5056048;28;20035;-70
2023/06/07 02:10:19;;;;;;;10.25;5.53;;;;;;;12.42;66.73;99697.91;5039665;28;20502;-73
2023/06/07 02:12:46;;;;;;;14.43;5.90;;;;;;;12.46;66.68;99696.72;5058409;28;20043;-72
2023/06/07 02:15:14;;;;;;;9.15;5.28;;;;;;;12.51;66.79;99673.16;5040674;28;20502;-71
2023/06/07 02:17:57;;;;;;;12.32;4.93;;;;;;;12.62;66.86;99692.72;5057424;28;20063;-71
2023/06/07 02:20:42;;;;;;;13.63;5.93;;;;;;;12.66;66.23;99696.00;5026515;28;20051;-73
2023/06/07 02:23:07;;;;;;;10.85;5.47;;;;;;;12.69;66.46;99696.59;5058230;28;20047;-72
2023/06/07 02:25:34;;;;;;;10.38;4.95;;;;;;;12.77;66.00;99684.44;5039815;28;20044;-71
2023/06/07 02:28:00;;;;;;;9.82;5.82;;;;;;;12.85;65.91;99698.06;5040254;28;20044;-72
2023/06/07 02:30:25;;;;;;;23.30;5.95;;;;;;;12.90;65.54;99707.41;5057663;28;20048;-71
2023/06/07 02:32:53;;;;;;;11.70;5.50;;;;;;;12.97;65.10;99686.38;5058602;28;20036;-70
2023/06/07 02:35:20;;;;;;;14.90;5.55;;;;;;;13.02;64.63;99678.81;5058163;28;20048;-71
2023/06/07 02:37:45;;;;;;;11.63;5.40;;;;;;;13.06;64.22;99685.63;5040256;28;20040;-71
2023/06/07 02:40:11;;;;;;;10.65;5.50;;;;;;;13.05;64.22;99668.72;5057564;28;20418;-71
2023/06/07 02:42:37;;;;;;;10.63;5.78;;;;;;;13.09;64.37;99670.16;5056514;28;20044;-72
2023/06/07 02:45:03;;;;;;;11.95;6.10;;;;;;;13.17;64.97;99682.97;5057432;28;20044;-72
2023/06/07 02:47:30;;;;;;;13.10;6.07;;;;;;;13.27;64.88;99673.22;5039614;28;20048;-71
2023/06/07 02:49:57;;;;;;;12.73;5.35;;;;;;;13.39;64.91;99660.63;5022443;28;20121;-71
2023/06/07 02:52:25;;;;;;;14.98;5.32;;;;;;;13.52;64.57;99645.25;5056183;28;20040;-71
2023/06/07 02:54:51;;;;;;;11.07;5.75;;;;;;;13.64;64.26;99678.19;5056075;28;20051;-71
2023/06/07 02:57:16;;;;;;;9.88;5.53;;;;;;;13.76;63.92;99706.66;5055911;28;20039;-71
2023/06/07 02:59:41;;;;;;;8.90;5.30;;;;;;;13.92;63.80;99679.41;5056249;28;20046;-72
2023/06/07 03:02:08;;;;;;;11.10;5.82;;;;;;;14.04;63.23;99689.94;5056079;28;20067;-70
2023/06/07 03:04:33;;;;;;;11.30;5.57;;;;;;;14.18;62.68;99681.56;5037930;28;20453;-72
2023/06/07 03:07:00;;;;;;;10.80;5.00;;;;;;;14.33;62.16;99681.25;5038410;28;20036;-71
2023/06/07 03:09:36;;;;;;;10.35;4.70;;;;;;;14.49;61.53;99677.13;5039103;28;20402;-71
2023/06/07 03:12:01;;;;;;;9.00;5.22;;;;;;;14.64;61.33;99698.22;5021684;28;20079;-72
2023/06/07 03:14:33;;;;;;;7.68;4.32;;;;;;;14.81;60.98;99705.63;5039152;28;20544;-71
2023/06/07 03:17:02;;;;;;;12.30;5.20;;;;;;;14.98;60.24;99691.59;5055498;28;20521;-70
2023/06/07 03:19:29;;;;;;;9.45;5.00;;;;;;;15.14;59.41;99670.41;5039161;28;20051;-71
2023/06/07 03:21:57;;;;;;;14.05;5.25;;;;;;;15.27;59.35;99678.22;5055580;28;20525;-71
2023/06/07 03:24:23;;;;;;;8.35;4.20;;;;;;;15.43;58.83;99669.63;5055560;28;20054;-70
2023/06/07 03:26:50;;;;;;;8.80;5.07;;;;;;;15.56;57.71;99678.31;5038877;28;20051;-71
2023/06/07 03:29:16;;;;;;;6.30;4.47;;;;;;;15.65;57.92;99680.16;5038154;28;20406;-71
2023/06/07 03:31:41;;;;;;;11.75;5.05;;;;;;;15.78;57.36;99677.19;5021331;28;20048;-72
2023/06/07 03:34:11;;;;;;;8.10;4.45;;;;;;;15.90;57.54;99674.22;5021359;28;20056;-71
2023/06/07 03:36:37;;;;;;;10.00;4.22;;;;;;;16.02;56.79;99693.72;5038158;28;20055;-70
2023/06/07 03:39:03;;;;;;;8.38;4.47;;;;;;;16.14;56.25;99681.81;5025213;28;20036;-71
2023/06/07 03:41:28;;;;;;;8.98;4.47;;;;;;;16.29;56.40;99668.75;5056171;28;20102;-71
2023/06/07 03:43:55;;;;;;;9.27;4.60;;;;;;;16.39;55.53;99671.41;5055038;28;20032;-72
2023/06/07 03:46:20;;;;;;;7.35;4.30;;;;;;;16.49;55.17;99669.53;5038170;28;20055;-72
2023/06/07 03:48:46;;;;;;;9.27;4.15;;;;;;;16.62;55.19;99702.41;5038216;28;20047;-71
2023/06/07 03:51:11;;;;;;;12.52;4.65;;;;;;;16.75;54.51;99669.78;5037857;28;20048;-72
2023/06/07 03:53:38;;;;;;;12.13;4.82;;;;;;;16.85;54.10;99670.56;5021108;28;20044;-71
2023/06/07 03:56:05;;;;;;;13.77;5.38;;;;;;;16.99;54.32;99654.78;5038056;28;20052;-71
2023/06/07 03:58:32;;;;;;;8.18;4.57;;;;;;;17.12;54.18;99678.66;5037694;28;20059;-69
2023/06/07 04:01:04;;;;;;;11.15;4.45;;;;;;;17.28;53.99;99667.22;5054827;28;20414;-70
2023/06/07 04:03:30;;;;;;;20.60;5.60;;;;;;;17.44;53.11;99667.41;5038226;28;20047;-71
2023/06/07 04:05:58;;;;;;;10.30;4.50;;;;;;;17.61;53.13;99668.38;5037883;28;20051;-71
2023/06/07 04:08:24;;;;;;;16.30;4.90;;;;;;;17.71;52.67;99664.69;5037828;28;20035;-71
2023/06/07 04:10:50;;;;;;;12.90;5.85;;;;;;;17.84;51.93;99666.09;5020619;28;20059;-71
2023/06/07 04:13:15;;;;;;;11.25;4.35;;;;;;;17.92;52.25;99666.19;5037306;28;20405;-70
2023/06/07 04:15:40;;;;;;;11.60;5.10;;;;;;;17.98;52.13;99687.13;5037582;28;20059;-70
2023/06/07 04:18:06;;;;;;;11.05;4.22;;;;;;;18.07;51.63;99672.72;5037591;28;20036;-70
2023/06/07 04:20:32;;;;;;;16.65;4.80;;;;;;;18.22;51.51;99668.44;5054828;28;20137;-70
2023/06/07 04:23:00;;;;;;;11.68;4.55;;;;;;;18.30;51.24;99671.19;5020174;28;20051;-69
2023/06/07 04:25:32;;;;;;;11.65;4.65;;;;;;;18.44;50.70;99672.47;5037714;28;20047;-71
2023/06/07 04:28:01;;;;;;;14.00;4.88;;;;;;;18.50;50.83;99661.06;5020672;28;20048;-71
2023/06/07 04:30:34;;;;;;;9.70;4.88;;;;;;;18.67;50.63;99673.66;5054330;28;20039;-71
2023/06/07 04:33:08;;;;;;;7.45;4.00;;;;;;;18.83;49.75;99675.63;5036868;28;20044;-70
2023/06/07 04:35:44;;;;;;;18.13;4.68;;;;;;;19.02;49.55;99661.00;5071066;28;20854;-72
2023/06/07 04:38:15;;;;;;;7.15;4.50;;;;;;;19.13;49.34;99664.25;5019763;28;20059;-71
2023/06/07 04:40:42;;;;;;;8.25;4.45;;;;;;;19.38;48.72;99653.50;5020814;28;20055;-71
2023/06/07 04:43:10;;;;;;;11.27;5.07;;;;;;;19.74;48.28;99641.44;5039374;28;20052;-72
2023/06/07 04:45:39;;;;;;;9.13;4.40;;;;;;;20.10;47.49;99630.25;5056345;28;20437;-72
2023/06/07 04:48:11;;;;;;;9.35;4.38;;;;;;;20.37;45.92;99643.44;5054022;28;20039;-71
2023/06/07 04:50:41;;;;;;;7.30;4.68;;;;;;;20.70;46.00;99659.59;5055641;28;20039;-70
2023/06/07 04:53:10;;;;;;;7.18;4.28;;;;;;;21.20;45.13;99651.16;5054046;28;20498;-71
2023/06/07 04:55:37;;;;;;;10.70;4.72;;;;;;;21.53;44.11;99636.38;5020629;28;20044;-71
2023/06/07 04:58:05;;;;;;;9.38;4.00;;;;;;;21.78;43.85;99631.63;5019358;28;20044;-70
2023/06/07 05:00:33;;;;;;;8.95;4.18;;;;;;;22.08;43.24;99636.13;5016150;28;20056;-71
2023/06/07 05:03:06;;;;;;;7.93;4.20;;;;;;;22.43;41.89;99629.16;5017039;28;20060;-73
2023/06/07 05:05:33;;;;;;;6.93;4.68;;;;;;;22.78;41.98;99635.78;5016094;28;20041;-71
2023/06/07 05:07:59;;;;;;;10.38;4.32;;;;;;;22.98;41.25;99632.47;5034072;28;20044;-71
2023/06/07 05:10:24;;;;;;;17.83;5.63;;;;;;;23.24;40.69;99649.13;5034728;28;20039;-71
2023/06/07 05:12:51;;;;;;;11.00;5.63;;;;;;;23.59;40.43;99631.09;5033655;28;20396;-70
2023/06/07 05:15:16;;;;;;;6.40;4.35;;;;;;;23.85;39.87;99625.09;5035305;28;20048;-73
2023/06/07 05:17:45;;;;;;;6.65;3.80;;;;;;;24.16;39.57;99601.03;5037011;28;20568;-71
2023/06/07 05:20:12;;;;;;;7.75;4.32;;;;;;;24.40;38.71;99628.91;5053491;28;20048;-72
2023/06/07 05:22:39;;;;;;;8.52;4.00;;;;;;;24.49;38.45;99623.09;5019486;28;20052;-71
2023/06/07 05:25:08;;;;;;;6.30;3.90;;;;;;;24.48;37.58;99629.63;5037157;28;20044;-71
2023/06/07 05:27:36;;;;;;;8.88;4.30;;;;;;;24.65;38.26;99626.56;5053466;28;20040;-71
2023/06/07 05:30:04;;;;;;;9.30;4.00;;;;;;;24.92;38.16;99626.56;5036871;28;20062;-71
2023/06/07 05:32:36;;;;;;;6.07;3.72;;;;;;;25.12;36.91;99618.47;5054195;28;20395;-72
2023/06/07 05:35:03;;;;;;;6.95;3.88;;;;;;;24.93;36.10;99606.44;5037240;28;20514;-70
2023/06/07 05:37:30;;;;;;;7.43;3.90;;;;;;;25.06;37.10;99619.25;5054294;28;20044;-71
2023/06/07 05:39:56;;;;;;;6.22;3.50;;;;;;;25.33;36.78;99610.13;5020626;28;20044;-70
2023/06/07 05:42:22;;;;;;;7.05;4.03;;;;;;;25.61;36.75;99601.00;5054952;28;20443;-71
2023/06/07 05:44:48;;;;;;;4.18;3.47;;;;;;;26.07;35.98;99611.13;5055728;28;20043;-71
2023/06/07 05:47:17;;;;;;;7.63;4.25;;;;;;;26.57;35.08;99599.53;5036851;28;20044;-70
2023/06/07 05:49:44;;;;;;;7.82;3.88;;;;;;;27.07;34.44;99603.41;5036978;28;20040;-71
2023/06/07 05:52:09;;;;;;;4.18;3.42;;;;;;;27.54;33.48;99594.94;5020227;28;20067;-70
2023/06/07 05:54:34;;;;;;;6.80;3.90;;;;;;;28.01;32.78;99588.91;5035873;28;20056;-71
2023/06/07 05:56:59;;;;;;;6.25;4.10;;;;;;;28.64;32.49;99601.63;5054396;28;20044;-70
2023/06/07 05:59:25;;;;;;;8.70;4.25;;;;;;;29.29;31.49;99596.44;5054346;28;20055;-72
2023/06/07 06:01:50;;;;;;;6.97;4.35;;;;;;;29.23;30.68;99582.53;5036130;28;20056;-70
2023/06/07 06:04:16;;;;;;;8.02;4.15;;;;;;;29.61;30.53;99590.50;5054309;28;20422;-70
2023/06/07 06:06:42;;;;;;;5.03;3.83;;;;;;;30.21;30.30;99595.91;5054876;28;20043;-73
2023/06/07 06:09:07;;;;;;;12.18;4.25;;;;;;;30.96;29.11;99608.91;5055693;28;20058;-71
2023/06/07 06:11:32;;;;;;;6.32;4.00;;;;;;;31.68;27.77;99584.50;5039685;28;20047;-70
2023/06/07 06:13:57;;;;;;;7.32;4.30;;;;;;;32.28;27.67;99587.44;5057427;28;20040;-72
2023/06/07 06:16:22;;;;;;;7.40;4.20;;;;;;;32.91;26.94;99577.91;5039679;28;20055;-72
2023/06/07 06:18:48;;;;;;;5.47;4.30;;;;;;;33.44;25.58;99610.34;5057045;28;20039;-70
2023/06/07 06:21:13;;;;;;;4.18;3.55;;;;;;;33.89;24.90;99587.88;5047762;28;20047;-70
2023/06/07 06:23:38;;;;;;;8.50;4.00;;;;;;;34.11;24.41;99593.31;5053450;28;20048;-70
2023/06/07 06:26:04;;;;;;;4.63;4.05;;;;;;;34.06;24.12;99584.97;5054603;28;20433;-71
2023/06/07 06:28:29;;;;;;;6.28;4.07;;;;;;;34.29;23.84;99610.66;5036140;28;20565;-70
2023/06/07 06:30:55;;;;;;;6.28;4.25;;;;;;;34.38;23.76;99578.59;5055278;28;20044;-70
2023/06/07 06:33:20;;;;;;;11.88;4.57;;;;;;;34.03;23.34;99579.13;5056017;28;20057;-71
2023/06/07 06:35:47;;;;;;;6.22;4.18;;;;;;;33.59;23.73;99590.31;5054440;28;20379;-71
2023/06/07 06:38:12;;;;;;;6.53;4.07;;;;;;;33.67;23.89;99597.31;5035837;28;20052;-71
2023/06/07 06:40:38;;;;;;;6.45;3.70;;;;;;;33.33;23.83;99564.34;5057961;28;20482;-73
2023/06/07 06:43:03;;;;;;;5.28;4.32;;;;;;;32.47;24.50;99571.47;5056714;28;20054;-70
2023/06/07 06:45:39;;;;;;;5.82;3.90;;;;;;;32.68;24.14;99567.91;5022447;28;20414;-73
2023/06/07 06:48:05;;;;;;;6.22;4.10;;;;;;;33.36;24.17;99597.00;5039148;28;20118;-70
2023/06/07 06:50:30;;;;;;;5.80;4.30;;;;;;;34.29;23.43;99571.91;5056268;28;20544;-70
2023/06/07 06:52:56;;;;;;;10.95;4.25;;;;;;;34.99;22.65;99570.66;5039910;28;20047;-70
2023/06/07 06:55:21;;;;;;;6.22;4.18;;;;;;;35.50;21.92;99566.13;5073263;28;20055;-71
2023/06/07 06:57:46;;;;;;;5.95;3.75;;;;;;;35.83;21.89;99593.38;5039108;28;20048;-70
2023/06/07 07:00:12;;;;;;;6.47;4.15;;;;;;;36.47;21.47;99592.81;5039231;28;20047;-71
2023/06/07 07:02:37;;;;;;;5.90;4.28;;;;;;;37.19;21.21;99560.13;5038601;28;20498;-70
2023/06/07 07:05:05;;;;;;;6.57;4.38;;;;;;;37.94;20.62;99553.22;5039409;28;20920;-71
2023/06/07 07:07:32;;;;;;;4.78;4.30;;;;;;;38.69;20.09;99555.59;5057154;28;20036;-70
2023/06/07 07:09:59;;;;;;;8.50;5.13;;;;;;;39.33;19.60;99557.00;5039394;28;20442;-71
2023/06/07 07:12:28;;;;;;;9.77;5.10;;;;;;;39.77;18.94;99559.44;5040325;28;20048;-72
2023/06/07 07:14:53;;;;;;;5.00;4.50;;;;;;;40.11;18.70;99537.66;5039672;28;20060;-72
2023/06/07 07:17:19;;;;;;;5.10;4.60;;;;;;;40.48;18.29;99553.50;5056680;28;20040;-71
2023/06/07 07:19:46;;;;;;;6.20;4.90;;;;;;;40.57;17.90;99551.63;5056771;28;20047;-70
2023/06/07 07:22:12;;;;;;;9.82;4.75;;;;;;;40.81;17.90;99561.81;5056970;28;20032;-72
2023/06/07 07:24:37;;;;;;;7.60;5.10;;;;;;;41.24;17.69;99532.38;5055637;28;20055;-72
2023/06/07 07:27:03;;;;;;;5.82;5.32;;;;;;;41.67;17.24;99534.72;5056650;28;20040;-71
2023/06/07 07:29:28;;;;;;;7.30;5.40;;;;;;;41.91;17.61;99524.03;5037871;28;20063;-72
2023/06/07 07:31:54;;;;;;;12.50;5.60;;;;;;;42.11;17.17;99496.66;5056590;28;20043;-71
2023/06/07 07:34:19;;;;;;;6.13;5.47;;;;;;;42.36;16.76;99519.25;5056258;28;20043;-70
2023/06/07 07:36:44;;;;;;;6.38;5.75;;;;;;;42.55;16.33;99521.00;5056261;28;20040;-71
2023/06/07 07:39:11;;;;;;;6.20;5.70;;;;;;;42.67;16.12;99552.84;5056466;28;20414;-72
2023/06/07 07:41:37;;;;;;;6.97;6.43;;;;;;;43.45;15.73;99497.78;5056416;28;20044;-70
2023/06/07 07:44:02;;;;;;;7.63;6.85;;;;;;;44.39;15.13;99534.50;5056174;28;20048;-71
2023/06/07 07:46:28;;;;;;;8.32;7.43;;;;;;;44.92;15.00;99491.78;5037674;28;20391;-72
2023/06/07 07:48:53;;;;;;;8.38;7.22;;;;;;;45.34;15.01;99475.75;5037143;28;20059;-71
2023/06/07 07:51:19;;;;;;;7.72;7.03;;;;;;;45.25;14.77;99477.81;5037876;28;20048;-69
2023/06/07 07:53:45;;;;;;;7.95;7.15;;;;;;;44.69;15.07;99476.34;5037616;28;20052;-70
2023/06/07 07:56:11;;;;;;;7.55;6.63;;;;;;;42.82;15.78;99475.88;5055814;28;20043;-70
2023/06/07 07:58:36;;;;;;;8.55;6.47;;;;;;;40.93;17.24;99481.03;5056243;28;20040;-70
2023/06/07 08:01:02;;;;;;;6.45;5.90;;;;;;;39.79;17.95;99510.56;5037040;28;20359;-71
2023/06/07 08:03:28;;;;;;;6.47;5.90;;;;;;;40.53;17.30;99452.75;5037557;28;20060;-72
2023/06/07 08:05:54;;;;;;;7.72;5.60;;;;;;;40.30;16.77;99464.97;5037628;28;20044;-71
2023/06/07 08:08:19;;;;;;;6.80;5.75;;;;;;;38.51;17.98;99470.78;5055653;28;20043;-70
2023/06/07 08:10:46;;;;;;;7.30;5.30;;;;;;;36.03;19.88;99459.34;5037771;28;20047;-72
2023/06/07 08:13:11;;;;;;;5.60;5.10;;;;;;;36.39;19.76;99457.31;5055655;28;20055;-72
2023/06/07 08:15:36;;;;;;;7.45;5.10;;;;;;;37.30;19.47;99464.41;5055488;28;20062;-71
2023/06/07 08:18:02;;;;;;;7.18;4.72;;;;;;;38.08;19.19;99467.09;5037422;28;20052;-71
2023/06/07 08:20:27;;;;;;;9.38;4.85;;;;;;;38.70;18.26;99465.31;5036747;28;20475;-71
2023/06/07 08:22:53;;;;;;;10.00;5.88;;;;;;;39.98;17.38;99448.25;5055565;28;20043;-71
2023/06/07 08:25:18;;;;;;;5.82;4.90;;;;;;;39.73;17.34;99444.78;5055749;28;20039;-71
2023/06/07 08:27:43;;;;;;;5.95;5.07;;;;;;;39.45;17.45;99454.19;5055369;28;20067;-72
2023/06/07 08:30:12;;;;;;;5.90;5.40;;;;;;;40.53;16.98;99455.56;5036699;28;20040;-70
2023/06/07 08:32:37;;;;;;;6.45;5.85;;;;;;;42.01;16.42;99448.19;5055281;28;20048;-70
2023/06/07 08:35:03;;;;;;;10.55;6.43;;;;;;;42.33;16.06;99449.78;5054099;28;20040;-70
2023/06/07 08:37:29;;;;;;;6.72;6.03;;;;;;;40.83;16.55;99467.28;5054343;28;20052;-72
2023/06/07 08:39:54;;;;;;;8.07;5.63;;;;;;;38.57;17.80;99450.13;5055070;28;20055;-71
2023/06/07 08:42:20;;;;;;;5.72;5.00;;;;;;;36.60;19.39;99442.25;5037424;28;20051;-73
2023/06/07 08:44:45;;;;;;;5.57;5.00;;;;;;;35.64;20.48;99448.84;5055629;28;20035;-71
2023/06/07 08:47:12;;;;;;;7.65;5.18;;;;;;;36.86;19.94;99442.97;5055851;28;20486;-72
2023/06/07 08:49:40;;;;;;;7.97;4.97;;;;;;;37.10;19.18;99437.53;5036509;28;20052;-71
2023/06/07 08:52:09;;;;;;;6.75;4.50;;;;;;;36.03;19.87;99439.91;5057285;28;20495;-72
2023/06/07 08:54:40;;;;;;;6.30;4.70;;;;;;;34.39;21.27;99441.88;5056957;28;20054;-72
2023/06/07 08:57:06;;;;;;;7.82;4.60;;;;;;;34.39;22.07;99444.63;5040081;28;20067;-73
2023/06/07 08:59:32;;;;;;;5.47;4.93;;;;;;;36.23;20.12;99436.31;5063750;28;20059;-71
2023/06/07 09:01:58;;;;;;;8.57;5.00;;;;;;;38.49;18.23;99434.84;5042680;28;20060;-70
2023/06/07 09:04:23;;;;;;;6.78;4.95;;;;;;;39.98;17.26;99421.16;5040460;28;20350;-71
2023/06/07 09:06:50;;;;;;;6.47;5.78;;;;;;;41.49;16.54;99415.38;5037029;28;20042;-72
2023/06/07 09:09:15;;;;;;;7.57;6.78;;;;;;;43.12;16.16;99428.41;5055092;28;20044;-72
2023/06/07 09:11:41;;;;;;;11.02;7.00;;;;;;;43.48;15.59;99420.47;5032550;28;20041;-71
2023/06/07 09:14:06;;;;;;;7.47;6.70;;;;;;;41.57;15.78;99423.03;5053627;28;20387;-72
2023/06/07 09:16:31;;;;;;;7.22;5.75;;;;;;;39.22;16.72;99414.09;5036204;28;20055;-72
2023/06/07 09:18:57;;;;;;;7.55;5.10;;;;;;;37.25;18.02;99431.88;5055447;28;20047;-71
2023/06/07 09:21:26;;;;;;;5.45;4.85;;;;;;;36.34;18.92;99454.59;5050320;28;20040;-74
2023/06/07 09:23:53;;;;;;;7.50;5.25;;;;;;;37.55;18.77;99444.75;5050015;28;20145;-72
2023/06/07 09:26:20;;;;;;;6.82;5.40;;;;;;;39.26;17.64;99408.75;5054961;28;20036;-72
2023/06/07 09:28:46;;;;;;;6.20;5.60;;;;;;;38.70;17.74;99456.94;5050313;28;20048;-73
2023/06/07 09:31:12;;;;;;;6.18;5.45;;;;;;;37.28;18.39;99428.53;5035604;28;20048;-72
2023/06/07 09:33:37;;;;;;;8.35;5.22;;;;;;;35.61;19.62;99440.22;5054742;28;20417;-71
2023/06/07 09:36:11;;;;;;;7.07;4.88;;;;;;;34.18;20.44;99446.44;5034730;28;20052;-71
2023/06/07 09:38:37;;;;;;;6.07;5.15;;;;;;;33.21;21.37;99419.09;5054683;28;20052;-72
2023/06/07 09:41:04;;;;;;;9.57;4.90;;;;;;;33.27;22.05;99437.44;5054597;28;20050;-72
2023/06/07 09:43:54;;;;;;;7.72;5.13;;;;;;;34.27;21.60;99436.56;5036632;28;20509;-73
2023/06/07 09:46:19;;;;;;;6.13;4.60;;;;;;;34.36;21.08;99442.41;5032685;28;20041;-71
2023/06/07 09:48:53;;;;;;;7.05;4.75;;;;;;;34.12;21.66;99439.19;5042279;28;20055;-71
2023/06/07 09:51:21;;;;;;;5.88;4.32;;;;;;;33.06;22.07;99464.84;5036779;28;20043;-72
2023/06/07 09:53:51;;;;;;;5.72;4.53;;;;;;;31.97;22.97;99442.69;5036245;28;20062;-73
2023/06/07 09:56:16;;;;;;;9.73;4.22;;;;;;;30.94;23.38;99434.84;5054702;28;20043;-73
2023/06/07 09:58:46;;;;;;;7.30;3.90;;;;;;;30.06;24.44;99437.97;5054719;28;20044;-71
2023/06/07 10:01:11;;;;;;;6.32;4.28;;;;;;;32.02;23.56;99375.78;5052845;28;20089;-73
2023/06/07 10:03:47;;;;;;;5.72;4.43;;;;;;;35.40;20.94;99424.72;5012728;28;20056;-71
2023/06/07 10:06:16;;;;;;;6.15;5.10;;;;;;;38.68;18.78;99381.16;5015927;28;20056;-73
2023/06/07 10:08:43;;;;;;;6.47;5.35;;;;;;;40.80;17.34;99364.44;5035033;28;20043;-72
2023/06/07 10:11:11;;;;;;;6.15;5.40;;;;;;;40.55;15.79;99374.22;5034647;28;20044;-73
2023/06/07 10:13:38;;;;;;;5.95;5.35;;;;;;;41.31;16.42;99369.66;5038002;28;20044;-70
2023/06/07 10:16:09;;;;;;;6.90;6.05;;;;;;;42.68;15.01;99369.44;5037994;28;20095;-70
2023/06/07 10:18:35;;;;;;;7.63;7.03;;;;;;;44.25;13.99;99370.88;5038098;28;20048;-72
2023/06/07 10:21:12;;;;;;;13.05;8.32;;;;;;;45.40;12.79;99369.34;5037191;28;20040;-71
2023/06/07 10:23:54;;;;;;;10.55;9.60;;;;;;;45.36;13.26;99369.25;5019553;28;20045;-71
2023/06/07 10:26:40;;;;;;;10.10;9.10;;;;;;;45.64;12.42;99361.00;5036809;28;20040;-75
2023/06/07 10:29:07;;;;;;;10.40;9.32;;;;;;;44.60;13.80;99361.06;5020225;28;20048;-73
2023/06/07 10:31:36;;;;;;;10.23;9.18;;;;;;;42.62;14.35;99353.13;5020086;28;20037;-74
2023/06/07 10:34:07;;;;;;;7.75;6.97;;;;;;;39.24;16.13;99395.09;5036436;28;20045;-71
2023/06/07 10:36:37;;;;;;;14.93;5.53;;;;;;;37.47;17.13;99355.53;5037006;28;20044;-75
2023/06/07 10:39:03;;;;;;;8.95;5.90;;;;;;;35.90;18.17;99337.81;5002904;28;20419;-73
2023/06/07 10:41:29;;;;;;;7.75;5.65;;;;;;;33.98;19.33;99347.53;5037337;28;20051;-73
2023/06/07 10:43:55;;;;;;;6.93;5.30;;;;;;;33.03;20.57;99371.44;5037491;28;20048;-72
2023/06/07 10:46:25;;;;;;;7.47;4.70;;;;;;;32.20;21.44;99382.91;5003139;28;20517;-72
2023/06/07 10:48:52;;;;;;;9.05;4.93;;;;;;;31.56;22.57;99375.09;5019496;28;20096;-74
2023/06/07 10:51:38;;;;;;;8.10;4.80;;;;;;;30.90;22.90;99334.59;5036627;28;20044;-70
2023/06/07 10:54:03;;;;;;;7.15;4.85;;;;;;;30.25;23.10;99321.22;5039822;28;20048;-73
2023/06/07 10:56:36;;;;;;;7.13;4.10;;;;;;;29.56;23.99;99342.28;5041467;28;20048;-71
2023/06/07 10:59:13;;;;;;;10.63;4.28;;;;;;;29.37;24.12;99332.44;5021611;28;20048;-72
2023/06/07 11:01:39;;;;;;;6.28;3.90;;;;;;;28.87;24.46;99310.94;5007604;28;20049;-72
2023/06/07 11:04:04;;;;;;;7.60;4.50;;;;;;;28.43;25.35;99304.84;5022986;28;20064;-73
2023/06/07 11:06:32;;;;;;;6.90;4.18;;;;;;;28.08;25.79;99312.88;5042520;28;20059;-73
2023/06/07 11:09:17;;;;;;;7.15;4.68;;;;;;;28.14;25.68;99300.13;5035543;28;20036;-72
2023/06/07 11:11:44;;;;;;;7.75;3.70;;;;;;;27.73;26.34;99306.34;5030397;28;20045;-72
2023/06/07 11:14:11;;;;;;;9.02;4.93;;;;;;;27.46;26.52;99300.31;5036419;28;20059;-72
2023/06/07 11:16:37;;;;;;;4.78;3.75;;;;;;;27.10;27.47;99312.84;5004729;28;20048;-75
2023/06/07 11:19:12;;;;;;;6.90;3.65;;;;;;;26.86;26.34;99301.91;5039255;28;20495;-77
2023/06/07 11:21:53;;;;;;;7.90;4.03;;;;;;;26.46;27.24;99301.34;5043838;28;20046;-76
2023/06/07 11:24:19;;;;;;;7.80;4.20;;;;;;;26.01;27.80;99296.72;5026999;28;20044;-77
2023/06/07 11:26:45;;;;;;;4.97;4.00;;;;;;;25.90;28.31;99285.66;5041616;28;20040;-75
2023/06/07 11:29:11;;;;;;;4.90;3.55;;;;;;;25.95;28.79;99285.84;5020512;28;20407;-77
2023/06/07 11:31:36;;;;;;;9.82;4.22;;;;;;;26.07;28.88;99289.56;5039117;28;20486;-79
2023/06/07 11:34:02;;;;;;;4.55;3.53;;;;;;;26.17;28.29;99291.84;5037468;28;20419;-75